createdAt,value
2019-04-10T00:01:36.108Z,3.18
2019-04-10T00:04:10.500Z,3.11
2019-04-10T00:06:44.657Z,3.08
2019-04-10T00:09:18.986Z,3.08
2019-04-10T00:11:53.491Z,3.06
2019-04-10T00:14:28.252Z,3.01
2019-04-10T00:17:02.710Z,3.01
2019-04-10T00:19:36.530Z,2.99
2019-04-10T00:22:10.322Z,2.93
2019-04-10T00:24:44.251Z,2.89
2019-04-10T00:27:18.660Z,2.84
2019-04-10T00:29:52.624Z,2.81
2019-04-10T00:32:27.818Z,2.79
2019-04-10T00:35:02.550Z,2.71
2019-04-10T00:37:37.149Z,2.68
2019-04-10T00:40:11.585Z,2.64
2019-04-10T00:42:45.462Z,2.60
2019-04-10T00:45:19.563Z,2.58
2019-04-10T00:47:53.714Z,2.57
2019-04-10T00:50:28.389Z,2.53
2019-04-10T00:53:03.006Z,2.49
2019-04-10T00:55:37.609Z,2.39
2019-04-10T00:58:12.092Z,2.37
2019-04-10T01:00:46.095Z,2.35
2019-04-10T01:03:38.185Z,2.26
2019-04-10T01:06:13.423Z,2.26
2019-04-10T01:08:47.425Z,2.20
2019-04-10T01:11:21.228Z,2.18
2019-04-10T01:13:55.206Z,2.16
2019-04-10T01:16:29.006Z,2.12
2019-04-10T01:19:03.694Z,2.05
2019-04-10T01:21:38.759Z,2.02
2019-04-10T01:24:13.181Z,2.01
2019-04-10T01:26:47.558Z,1.98
2019-04-10T01:29:21.738Z,2.03
2019-04-10T01:31:55.399Z,2.01
2019-04-10T01:34:29.535Z,2.01
2019-04-10T01:37:04.770Z,1.94
2019-04-10T01:39:38.653Z,1.91
2019-04-10T01:42:12.511Z,1.88
2019-04-10T01:44:47.052Z,1.85
2019-04-10T01:47:21.366Z,1.83
2019-04-10T01:49:55.783Z,1.74
2019-04-10T01:52:29.546Z,1.71
2019-04-10T01:55:18.166Z,1.65
2019-04-10T01:57:39.354Z,1.64
2019-04-10T02:00:16.484Z,1.63
2019-04-10T02:02:51.904Z,1.61
2019-04-10T02:05:25.576Z,1.61
2019-04-10T02:08:07.946Z,1.56
2019-04-10T02:10:36.326Z,1.59
2019-04-10T02:13:10.247Z,1.50
2019-04-10T02:15:44.289Z,1.51
2019-04-10T02:18:18.029Z,1.47
2019-04-10T02:20:51.759Z,1.46
2019-04-10T02:23:26.072Z,1.42
2019-04-10T02:25:59.896Z,1.40
2019-04-10T02:28:33.631Z,1.40
2019-04-10T02:31:07.375Z,1.33
2019-04-10T02:33:41.332Z,1.33
2019-04-10T02:36:15.116Z,1.27
2019-04-10T02:39:04.645Z,1.27
2019-04-10T02:41:25.514Z,1.22
2019-04-10T02:44:00.019Z,1.20
2019-04-10T02:46:34.795Z,1.15
2019-04-10T02:49:08.857Z,1.13
2019-04-10T02:51:43.296Z,1.09
2019-04-10T02:54:17.576Z,1.00
2019-04-10T02:56:52.789Z,0.95
2019-04-10T02:59:27.164Z,0.92
2019-04-10T03:02:02.367Z,0.85
2019-04-10T03:04:37.234Z,0.80
2019-04-10T03:07:11.659Z,0.78
2019-04-10T03:10:00.866Z,0.77
2019-04-10T03:12:22.079Z,0.77
2019-04-10T03:14:58.959Z,0.75
2019-04-10T03:17:33.263Z,0.66
2019-04-10T03:20:07.960Z,0.64
2019-04-10T03:22:41.616Z,0.60
2019-04-10T03:25:15.412Z,0.58
2019-04-10T03:27:50.137Z,0.53
2019-04-10T03:30:24.055Z,0.53
2019-04-10T03:33:22.652Z,0.49
2019-04-10T03:35:55.397Z,0.46
2019-04-10T03:38:29.951Z,0.44
2019-04-10T03:41:04.064Z,0.47
2019-04-10T03:43:38.433Z,0.44
2019-04-10T03:46:13.009Z,0.39
2019-04-10T03:48:47.322Z,0.39
2019-04-10T03:51:21.089Z,0.37
2019-04-10T03:53:55.095Z,0.38
2019-04-10T03:56:29.704Z,0.35
2019-04-10T03:59:04.147Z,0.34
2019-04-10T04:01:38.848Z,0.31
2019-04-10T04:04:13.322Z,0.30
2019-04-10T04:06:48.166Z,0.28
2019-04-10T04:09:22.235Z,0.27
2019-04-10T04:11:55.947Z,0.27
2019-04-10T04:14:30.506Z,0.22
2019-04-10T04:17:04.567Z,0.19
2019-04-10T04:19:38.308Z,0.16
2019-04-10T04:22:12.541Z,0.12
2019-04-10T04:24:46.906Z,0.12
2019-04-10T04:27:21.624Z,0.11
2019-04-10T04:29:55.399Z,0.08
2019-04-10T04:32:29.379Z,0.07
2019-04-10T04:35:03.347Z,0.04
2019-04-10T04:37:37.926Z,0.04
2019-04-10T04:40:11.879Z,0.03
2019-04-10T04:42:45.719Z,0.01
2019-04-10T04:45:19.700Z,0.01
2019-04-10T04:47:55.569Z,0.03
2019-04-10T04:50:29.677Z,0.02
2019-04-10T04:53:04.473Z,0.01
2019-04-10T04:55:38.214Z,0.00
2019-04-10T04:58:12.249Z,0.00
2019-04-10T05:00:46.019Z,-0.02
2019-04-10T05:03:20.751Z,-0.02
2019-04-10T05:05:56.196Z,-0.05
2019-04-10T05:08:30.325Z,-0.01
2019-04-10T05:11:04.372Z,-0.02
2019-04-10T05:13:38.338Z,0.01
2019-04-10T05:16:12.089Z,0.01
2019-04-10T05:18:45.979Z,0.04
2019-04-10T05:21:21.008Z,0.03
2019-04-10T05:23:55.458Z,0.06
2019-04-10T05:26:29.500Z,0.08
2019-04-10T05:29:03.220Z,0.12
2019-04-10T05:31:36.951Z,0.15
2019-04-10T05:34:11.437Z,0.19
2019-04-10T05:36:45.445Z,0.27
2019-04-10T05:39:19.208Z,0.32
2019-04-10T05:41:52.890Z,0.36
2019-04-10T05:44:27.738Z,0.43
2019-04-10T05:47:01.719Z,0.46
2019-04-10T05:49:35.444Z,0.49
2019-04-10T05:52:10.386Z,0.52
2019-04-10T05:54:44.193Z,0.61
2019-04-10T05:57:18.075Z,0.69
2019-04-10T05:59:52.363Z,0.75
2019-04-10T06:02:27.135Z,0.85
2019-04-10T06:05:02.337Z,0.90
2019-04-10T06:07:37.135Z,0.98
2019-04-10T06:10:11.313Z,1.07
2019-04-10T06:12:45.112Z,1.18
2019-04-10T06:15:19.176Z,1.27
2019-04-10T06:17:52.921Z,1.39
2019-04-10T06:20:26.637Z,1.53
2019-04-10T06:23:01.265Z,1.64
2019-04-10T06:25:38.145Z,1.75
2019-04-10T06:28:10.448Z,1.81
2019-04-10T06:30:44.155Z,1.93
2019-04-10T06:33:18.086Z,2.05
2019-04-10T06:35:52.860Z,2.16
2019-04-10T06:38:26.897Z,2.26
2019-04-10T06:41:00.622Z,2.35
2019-04-10T06:43:34.427Z,2.46
2019-04-10T06:46:08.442Z,2.52
2019-04-10T06:48:42.482Z,2.59
2019-04-10T06:51:18.877Z,2.70
2019-04-10T06:54:01.797Z,2.84
2019-04-10T06:56:27.603Z,2.93
2019-04-10T06:59:02.526Z,3.04
2019-04-10T07:01:45.422Z,3.18
2019-04-10T07:04:12.152Z,3.31
2019-04-10T07:06:55.708Z,3.40
2019-04-10T07:09:26.159Z,3.46
2019-04-10T07:12:00.189Z,3.51
2019-04-10T07:14:36.504Z,3.57
2019-04-10T07:17:10.496Z,3.62
2019-04-10T07:19:45.947Z,3.74
2019-04-10T07:22:20.724Z,3.85
2019-04-10T07:24:54.561Z,3.96
2019-04-10T07:27:28.350Z,4.09
2019-04-10T07:30:02.168Z,4.15
2019-04-10T07:32:36.191Z,4.21
2019-04-10T07:35:13.997Z,4.25
2019-04-10T07:37:52.753Z,4.48
2019-04-10T07:40:22.876Z,4.63
2019-04-10T07:42:56.873Z,4.82
2019-04-10T07:45:30.726Z,5.02
2019-04-10T07:48:04.696Z,5.12
2019-04-10T07:50:39.062Z,5.24
2019-04-10T07:53:12.884Z,5.33
2019-04-10T07:55:58.338Z,5.36
2019-04-10T07:58:23.533Z,5.35
2019-04-10T08:00:57.535Z,5.51
2019-04-10T08:03:31.638Z,5.54
2019-04-10T08:06:06.728Z,5.62
2019-04-10T08:08:40.654Z,5.68
2019-04-10T08:11:15.425Z,6.04
2019-04-10T08:13:49.297Z,6.27
2019-04-10T08:16:23.233Z,6.55
2019-04-10T08:18:57.060Z,6.64
2019-04-10T08:21:31.669Z,6.95
2019-04-10T08:24:05.941Z,7.65
2019-04-10T08:26:40.946Z,8.22
2019-04-10T08:29:14.705Z,8.22
2019-04-10T08:31:48.667Z,8.67
2019-04-10T08:34:22.458Z,9.98
2019-04-10T08:36:56.780Z,10.51
2019-04-10T08:39:38.781Z,11.19
2019-04-10T08:42:06.501Z,10.72
2019-04-10T08:44:40.791Z,11.27
2019-04-10T08:47:15.256Z,11.74
2019-04-10T08:49:49.446Z,11.94
2019-04-10T08:52:24.187Z,12.44
2019-04-10T08:54:59.522Z,12.25
2019-04-10T08:57:34.200Z,13.11
2019-04-10T09:00:10.196Z,13.54
2019-04-10T09:02:44.434Z,13.08
2019-04-10T09:05:19.338Z,14.16
2019-04-10T09:07:54.662Z,14.97
2019-04-10T09:10:28.577Z,15.84
2019-04-10T09:13:02.579Z,15.27
2019-04-10T09:15:36.523Z,15.84
2019-04-10T09:18:11.363Z,16.59
2019-04-10T09:20:46.919Z,16.68
2019-04-10T09:23:30.751Z,17.33
2019-04-10T09:25:57.556Z,17.33
2019-04-10T09:28:32.710Z,17.88
2019-04-10T09:31:07.372Z,17.57
2019-04-10T09:33:41.382Z,17.02
2019-04-10T09:36:15.224Z,18.72
2019-04-10T09:38:48.970Z,18.33
2019-04-10T09:41:22.794Z,17.93
2019-04-10T09:43:58.184Z,17.58
2019-04-10T09:46:33.005Z,18.56
2019-04-10T09:49:07.139Z,18.13
2019-04-10T09:51:41.138Z,18.09
2019-04-10T09:54:15.450Z,17.29
2019-04-10T09:56:50.694Z,17.11
2019-04-10T09:59:32.925Z,18.53
2019-04-10T10:02:00.752Z,18.86
2019-04-10T10:04:34.471Z,19.57
2019-04-10T10:07:08.309Z,20.18
2019-04-10T10:09:43.140Z,18.67
2019-04-10T10:12:17.950Z,18.79
2019-04-10T10:14:51.958Z,19.60
2019-04-10T10:17:25.700Z,19.30
2019-04-10T10:19:59.561Z,19.74
2019-04-10T10:22:33.587Z,19.49
2019-04-10T10:25:08.701Z,18.87
2019-04-10T10:27:42.724Z,19.83
2019-04-10T10:30:17.626Z,21.10
2019-04-10T10:32:51.355Z,21.87
2019-04-10T10:35:25.283Z,20.53
2019-04-10T10:37:59.373Z,21.16
2019-04-10T10:40:33.962Z,21.43
2019-04-10T10:43:07.934Z,21.01
2019-04-10T10:45:42.814Z,20.68
2019-04-10T10:48:17.535Z,21.47
2019-04-10T10:50:51.504Z,21.65
2019-04-10T10:53:25.293Z,22.49
2019-04-10T10:55:59.891Z,21.98
2019-04-10T10:58:34.042Z,21.81
2019-04-10T11:01:07.902Z,22.53
2019-04-10T11:03:42.545Z,22.52
2019-04-10T11:06:17.750Z,22.69
2019-04-10T11:08:51.549Z,20.75
2019-04-10T11:11:25.329Z,21.11
2019-04-10T11:13:59.062Z,20.80
2019-04-10T11:16:33.927Z,21.21
2019-04-10T11:19:08.059Z,20.34
2019-04-10T11:21:42.953Z,20.89
2019-04-10T11:24:17.527Z,22.30
2019-04-10T11:29:38.993Z,22.10
2019-04-10T11:32:14.354Z,23.00
2019-04-10T11:34:49.375Z,22.89
2019-04-10T11:37:33.759Z,21.84
2019-04-10T11:40:01.219Z,22.92
2019-04-10T11:42:35.163Z,23.69
2019-04-10T11:45:10.903Z,22.75
2019-04-10T11:47:45.017Z,22.65
2019-04-10T11:50:19.469Z,23.45
2019-04-10T11:52:55.913Z,21.95
2019-04-10T11:55:29.734Z,22.46
2019-04-10T11:58:05.365Z,23.57
2019-04-10T12:00:50.760Z,23.96
2019-04-10T12:03:18.180Z,23.24
2019-04-10T12:05:55.137Z,23.46
2019-04-10T12:08:50.278Z,25.21
2019-04-10T12:13:38.619Z,23.90
2019-04-10T12:16:12.630Z,23.35
2019-04-10T12:18:46.820Z,23.41
2019-04-10T12:21:20.613Z,22.70
2019-04-10T12:23:54.317Z,23.10
2019-04-10T12:26:28.361Z,23.56
2019-04-10T12:29:02.507Z,23.42
2019-04-10T12:31:36.495Z,23.07
2019-04-10T12:34:10.780Z,23.63
2019-04-10T12:36:44.857Z,24.77
2019-04-10T12:39:18.645Z,24.64
2019-04-10T12:41:52.353Z,22.41
2019-04-10T12:44:26.123Z,22.87
2019-04-10T12:46:59.900Z,23.04
2019-04-10T12:49:33.935Z,22.16
2019-04-10T12:52:08.081Z,21.70
2019-04-10T12:54:42.738Z,22.62
2019-04-10T12:57:17.011Z,22.85
2019-04-10T12:59:50.712Z,23.81
2019-04-10T13:02:24.426Z,23.83
2019-04-10T13:04:58.128Z,23.55
2019-04-10T13:07:31.837Z,22.99
2019-04-10T13:10:06.574Z,23.13
2019-04-10T13:12:40.342Z,22.71
2019-04-10T13:15:15.074Z,22.29
2019-04-10T13:17:49.108Z,22.85
2019-04-10T13:20:23.981Z,22.07
2019-04-10T13:22:58.317Z,21.55
2019-04-10T13:25:32.472Z,22.47
2019-04-10T13:28:08.228Z,23.22
2019-04-10T13:30:50.635Z,22.66
2019-04-10T13:33:17.310Z,22.32
2019-04-10T13:35:51.189Z,22.55
2019-04-10T13:38:30.934Z,22.74
2019-04-10T13:41:01.870Z,21.34
2019-04-10T13:43:36.031Z,21.65
2019-04-10T13:46:10.818Z,21.11
2019-04-10T13:48:45.214Z,21.22
2019-04-10T13:51:19.348Z,21.92
2019-04-10T13:53:53.001Z,21.81
2019-04-10T13:56:26.844Z,22.31
2019-04-10T13:59:01.066Z,22.79
2019-04-10T14:01:35.701Z,23.42
2019-04-10T14:04:09.424Z,22.17
2019-04-10T14:06:44.155Z,22.10
2019-04-10T14:09:31.104Z,22.17
2019-04-10T14:11:54.813Z,22.43
2019-04-10T14:14:28.837Z,21.79
2019-04-10T14:17:04.408Z,21.14
2019-04-10T14:19:39.403Z,22.57
2019-04-10T14:22:13.602Z,22.98
2019-04-10T14:24:49.726Z,22.17
2019-04-10T14:27:25.339Z,21.20
2019-04-10T14:29:59.042Z,20.77
2019-04-10T14:32:37.714Z,20.47
2019-04-10T14:35:11.633Z,21.16
2019-04-10T14:37:45.681Z,20.65
2019-04-10T14:40:20.070Z,19.93
2019-04-10T14:42:55.595Z,20.01
2019-04-10T14:45:29.758Z,19.95
2019-04-10T14:48:03.604Z,20.29
2019-04-10T14:50:37.860Z,20.70
2019-04-10T14:53:12.158Z,19.33
2019-04-10T14:55:46.050Z,19.21
2019-04-10T14:58:25.154Z,18.77
2019-04-10T15:00:57.823Z,18.95
2019-04-10T15:03:32.778Z,19.45
2019-04-10T15:06:07.685Z,19.46
2019-04-10T15:08:41.852Z,18.65
2019-04-10T15:11:16.266Z,17.84
2019-04-10T15:13:50.767Z,16.50
2019-04-10T15:16:25.267Z,15.05
2019-04-10T15:19:00.316Z,14.22
2019-04-10T15:21:34.748Z,13.09
2019-04-10T15:24:08.947Z,12.39
2019-04-10T15:26:42.698Z,11.66
2019-04-10T15:29:16.544Z,11.23
2019-04-10T15:31:50.619Z,11.00
2019-04-10T15:34:24.429Z,10.90
2019-04-10T15:36:58.549Z,10.52
2019-04-10T15:39:37.080Z,10.45
2019-04-10T15:42:07.979Z,10.38
2019-04-10T15:44:42.772Z,10.12
2019-04-10T15:47:22.176Z,10.03
2019-04-10T15:49:53.528Z,10.07
2019-04-10T15:52:27.603Z,9.84
2019-04-10T15:55:01.655Z,9.68
2019-04-10T15:57:44.846Z,9.67
2019-04-10T16:00:12.839Z,9.53
2019-04-10T16:02:48.916Z,9.53
2019-04-10T16:05:23.671Z,9.47
2019-04-10T16:07:58.587Z,9.52
2019-04-10T16:10:50.461Z,9.42
2019-04-10T16:13:32.536Z,9.45
2019-04-10T16:16:25.502Z,9.39
2019-04-10T16:19:10.591Z,9.34
2019-04-10T16:21:45.731Z,9.19
2019-04-10T16:24:20.649Z,9.05
2019-04-10T16:26:54.528Z,9.03
2019-04-10T16:29:28.848Z,8.90
2019-04-10T16:32:04.176Z,8.82
2019-04-10T16:34:38.698Z,8.81
2019-04-10T16:37:12.673Z,8.70
2019-04-10T16:39:57.812Z,8.60
2019-04-10T16:42:22.868Z,8.56
2019-04-10T16:44:57.611Z,8.46
2019-04-10T16:47:32.379Z,8.43
2019-04-10T16:50:06.727Z,8.43
2019-04-10T16:52:41.058Z,8.36
2019-04-10T16:55:15.639Z,8.33
2019-04-10T16:57:49.623Z,8.33
2019-04-10T17:00:23.704Z,8.17
2019-04-10T17:02:57.610Z,8.17
2019-04-10T17:05:33.754Z,8.16
2019-04-10T17:08:07.792Z,8.07
2019-04-10T17:10:42.843Z,7.96
2019-04-10T17:13:18.313Z,7.94
2019-04-10T17:15:53.377Z,7.90
2019-04-10T17:18:27.541Z,7.84
2019-04-10T17:21:01.252Z,7.84
2019-04-10T17:23:36.422Z,7.71
2019-04-10T17:26:11.023Z,7.71
2019-04-10T17:28:44.952Z,7.73
2019-04-10T17:31:19.144Z,7.67
2019-04-10T17:33:54.337Z,7.64
2019-04-10T17:36:29.335Z,7.66
2019-04-10T17:39:03.702Z,7.53
2019-04-10T17:41:37.455Z,7.47
2019-04-10T17:44:11.708Z,7.34
2019-04-10T17:46:45.641Z,7.34
2019-04-10T17:49:19.724Z,7.24
2019-04-10T17:51:54.603Z,7.24
2019-04-10T17:54:29.788Z,7.06
2019-04-10T17:57:04.537Z,7.06
2019-04-10T17:59:38.572Z,6.99
2019-04-10T18:02:13.755Z,6.83
2019-04-10T18:04:48.329Z,6.83
2019-04-10T18:07:22.314Z,6.82
2019-04-10T18:09:56.215Z,6.74
2019-04-10T18:12:30.096Z,6.61
2019-04-10T18:15:04.259Z,6.57
2019-04-10T18:17:38.714Z,6.47
2019-04-10T18:20:12.945Z,6.42
2019-04-10T18:22:46.992Z,6.36
2019-04-10T18:25:22.212Z,6.29
2019-04-10T18:27:56.905Z,6.17
2019-04-10T18:30:32.984Z,6.08
2019-04-10T18:33:07.687Z,5.98
2019-04-10T18:35:42.811Z,5.84
2019-04-10T18:38:17.399Z,5.78
2019-04-10T18:40:55.718Z,5.66
2019-04-10T18:43:28.245Z,5.59
2019-04-10T18:46:10.718Z,5.56
2019-04-10T18:48:38.916Z,5.47
2019-04-10T18:51:13.887Z,5.41
2019-04-10T18:53:49.125Z,5.37
2019-04-10T18:56:23.283Z,5.36
2019-04-10T18:59:05.726Z,5.32
2019-04-10T19:02:03.249Z,5.30
2019-04-10T19:04:43.268Z,5.26
2019-04-10T19:07:17.436Z,5.19
2019-04-10T19:09:52.563Z,5.13
2019-04-10T19:12:26.601Z,5.07
2019-04-10T19:15:00.345Z,5.04
2019-04-10T19:17:35.106Z,4.96
2019-04-10T19:20:11.114Z,4.91
2019-04-10T19:22:44.928Z,4.90
2019-04-10T19:25:18.872Z,4.82
2019-04-10T19:27:52.784Z,4.75
2019-04-10T19:30:41.716Z,4.73
2019-04-10T19:33:16.209Z,4.67
2019-04-10T19:35:50.933Z,4.57
2019-04-10T19:38:25.254Z,4.54
2019-04-10T19:41:00.488Z,4.52
2019-04-10T19:43:34.771Z,4.45
2019-04-10T19:46:09.903Z,4.44
2019-04-10T19:48:43.790Z,4.42
2019-04-10T19:51:18.390Z,4.37
2019-04-10T19:53:53.343Z,4.33
2019-04-10T19:56:27.323Z,4.28
2019-04-10T19:59:01.320Z,4.25
2019-04-10T20:01:36.075Z,4.24
2019-04-10T20:04:10.447Z,4.18
2019-04-10T20:06:44.831Z,4.13
2019-04-10T20:09:20.066Z,4.07
2019-04-10T20:11:56.141Z,3.99
2019-04-10T20:14:30.914Z,3.94
2019-04-10T20:17:05.936Z,3.84
2019-04-10T20:19:40.381Z,3.79
2019-04-10T20:22:14.737Z,3.74
2019-04-10T20:24:50.111Z,3.67
2019-04-10T20:27:24.088Z,3.64
2019-04-10T20:29:58.050Z,3.61
2019-04-10T20:32:32.239Z,3.57
2019-04-10T20:35:07.686Z,3.47
2019-04-10T20:37:42.838Z,3.41
2019-04-10T20:40:18.065Z,3.35
2019-04-10T20:42:52.356Z,3.26
2019-04-10T20:45:26.663Z,3.23
2019-04-10T20:48:00.785Z,3.17
2019-04-10T20:50:36.298Z,3.12
2019-04-10T20:53:10.005Z,3.06
2019-04-10T20:55:44.085Z,2.99
2019-04-10T20:58:19.096Z,2.95
2019-04-10T21:00:54.759Z,2.91
2019-04-10T21:03:28.563Z,2.84
2019-04-10T21:06:02.411Z,2.74
2019-04-10T21:08:36.352Z,2.68
2019-04-10T21:11:10.229Z,2.66
2019-04-10T21:13:44.698Z,2.63
2019-04-10T21:16:19.729Z,2.57
2019-04-10T21:18:53.938Z,2.55
2019-04-10T21:21:27.749Z,2.48
2019-04-10T21:24:02.997Z,2.51
2019-04-10T21:26:37.314Z,2.48
2019-04-10T21:29:16.371Z,2.47
2019-04-10T21:32:01.100Z,2.47
2019-04-10T21:34:39.095Z,2.44
2019-04-10T21:37:13.588Z,2.41
2019-04-10T21:39:47.505Z,2.39
2019-04-10T21:42:24.272Z,2.34
2019-04-10T21:44:57.542Z,2.32
2019-04-10T21:47:31.414Z,2.26
2019-04-10T21:50:06.892Z,2.20
2019-04-10T21:52:41.396Z,2.20
2019-04-10T21:55:15.242Z,2.17
2019-04-10T21:57:49.143Z,2.17
2019-04-10T22:00:36.559Z,2.15
2019-04-10T22:03:11.240Z,2.13
2019-04-10T22:05:47.237Z,2.08
2019-04-10T22:08:31.571Z,2.05
2019-04-10T22:11:06.394Z,2.03
2019-04-10T22:13:40.364Z,1.97
2019-04-10T22:16:17.848Z,1.97
2019-04-10T22:18:52.027Z,1.95
2019-04-10T22:21:25.851Z,1.94
2019-04-10T22:24:00.972Z,1.87
2019-04-10T22:26:34.918Z,1.83
2019-04-10T22:29:10.618Z,1.78
2019-04-10T22:31:45.817Z,1.77
2019-04-10T22:34:19.960Z,1.75
2019-04-10T22:36:53.775Z,1.73
2019-04-10T22:39:27.883Z,1.74
2019-04-10T22:42:01.964Z,1.77
2019-04-10T22:44:40.881Z,1.74
2019-04-10T22:47:11.833Z,1.72
2019-04-10T22:49:45.774Z,1.68
2019-04-10T22:52:20.063Z,1.65
2019-04-10T22:54:55.262Z,1.65
2019-04-10T22:57:29.331Z,1.63
2019-04-10T23:00:03.425Z,1.61
2019-04-10T23:02:37.676Z,1.58
2019-04-10T23:05:12.034Z,1.56
2019-04-10T23:07:47.162Z,1.58
2019-04-10T23:10:21.612Z,1.59
2019-04-10T23:13:01.398Z,1.56
2019-04-10T23:15:31.456Z,1.51
2019-04-10T23:18:05.580Z,1.53
2019-04-10T23:20:39.781Z,1.50
2019-04-10T23:23:14.702Z,1.46
2019-04-10T23:25:48.863Z,1.44
2019-04-10T23:28:23.386Z,1.43
2019-04-10T23:30:57.371Z,1.44
2019-04-10T23:33:33.031Z,1.41
2019-04-10T23:36:07.673Z,1.41
2019-04-10T23:38:41.941Z,1.33
2019-04-10T23:41:15.729Z,1.31
2019-04-10T23:43:49.457Z,1.29
2019-04-10T23:46:23.594Z,1.30
2019-04-10T23:48:57.666Z,1.29
2019-04-10T23:51:31.570Z,1.27
2019-04-10T23:54:05.815Z,1.25
2019-04-10T23:56:39.908Z,1.22
2019-04-10T23:59:14.952Z,1.23
